createdAt,value
2019-01-02T00:02:13.739Z,66.30
2019-01-02T00:05:17.619Z,66.15
2019-01-02T00:08:21.437Z,66.08
2019-01-02T00:11:25.228Z,66.02
2019-01-02T00:14:29.230Z,65.82
2019-01-02T00:17:33.201Z,65.46
2019-01-02T00:20:37.329Z,65.34
2019-01-02T00:23:41.421Z,65.45
2019-01-02T00:26:45.293Z,65.16
2019-01-02T00:29:49.111Z,64.87
2019-01-02T00:32:52.935Z,64.91
2019-01-02T00:35:56.775Z,64.51
2019-01-02T00:39:00.558Z,64.67
2019-01-02T00:42:04.486Z,64.01
2019-01-02T00:45:09.154Z,64.18
2019-01-02T00:48:13.431Z,63.80
2019-01-02T00:51:17.597Z,63.89
2019-01-02T00:54:21.419Z,63.86
2019-01-02T00:57:25.230Z,63.67
2019-01-02T01:00:30.925Z,63.51
2019-01-02T01:03:34.801Z,62.90
2019-01-02T01:06:39.081Z,62.68
2019-01-02T01:09:43.311Z,62.59
2019-01-02T01:12:47.195Z,62.30
2019-01-02T01:15:50.999Z,62.55
2019-01-02T01:18:54.799Z,62.74
2019-01-02T01:21:58.641Z,62.36
2019-01-02T01:25:02.503Z,62.68
2019-01-02T01:28:06.317Z,62.88
2019-01-02T01:31:10.143Z,63.30
2019-01-02T01:34:13.970Z,63.36
2019-01-02T01:37:17.853Z,63.51
2019-01-02T01:40:21.755Z,63.90
2019-01-02T01:43:25.630Z,64.00
2019-01-02T01:46:29.437Z,64.48
2019-01-02T01:49:33.316Z,64.75
2019-01-02T01:52:37.130Z,64.75
2019-01-02T01:55:40.966Z,65.39
2019-01-02T01:58:44.766Z,65.45
2019-01-02T02:01:48.646Z,65.43
2019-01-02T02:04:52.568Z,65.67
2019-01-02T02:07:56.382Z,66.15
2019-01-02T02:11:00.188Z,66.41
2019-01-02T02:14:04.067Z,66.16
2019-01-02T02:17:07.904Z,66.20
2019-01-02T02:20:13.383Z,66.34
2019-01-02T02:23:17.190Z,66.47
2019-01-02T02:26:21.137Z,66.54
2019-01-02T02:29:25.224Z,66.33
2019-01-02T02:32:29.320Z,66.59
2019-01-02T02:35:33.212Z,66.52
2019-01-02T02:38:37.486Z,66.61
2019-01-02T02:41:41.664Z,66.23
2019-01-02T02:44:45.928Z,65.96
2019-01-02T02:47:49.872Z,66.13
2019-01-02T02:50:54.059Z,65.50
2019-01-02T02:53:58.124Z,65.58
2019-01-02T02:57:02.112Z,65.15
2019-01-02T03:00:10.158Z,65.48
2019-01-02T03:03:13.970Z,65.07
2019-01-02T03:06:17.810Z,64.28
2019-01-02T03:09:21.611Z,63.87
2019-01-02T03:12:25.459Z,63.43
2019-01-02T03:15:29.327Z,62.91
2019-01-02T03:18:33.125Z,63.04
2019-01-02T03:21:37.327Z,62.64
2019-01-02T03:24:41.490Z,62.58
2019-01-02T03:27:45.531Z,62.60
2019-01-02T03:30:49.702Z,62.19
2019-01-02T03:33:53.810Z,61.96
2019-01-02T03:36:57.620Z,62.46
2019-01-02T03:40:01.432Z,62.40
2019-01-02T03:43:05.219Z,62.21
2019-01-02T03:46:09.126Z,62.20
2019-01-02T03:49:12.927Z,61.76
2019-01-02T03:52:16.731Z,62.01
2019-01-02T03:55:20.592Z,61.69
2019-01-02T03:58:24.459Z,61.68
2019-01-02T04:01:28.252Z,62.01
2019-01-02T04:04:32.081Z,62.00
2019-01-02T04:07:35.915Z,61.50
2019-01-02T04:10:39.798Z,61.54
2019-01-02T04:13:43.650Z,61.35
2019-01-02T04:16:47.446Z,61.97
2019-01-02T04:19:51.338Z,61.76
2019-01-02T04:22:55.145Z,60.93
2019-01-02T04:25:59.058Z,60.79
2019-01-02T04:29:02.946Z,60.24
2019-01-02T04:32:06.766Z,60.50
2019-01-02T04:35:10.601Z,60.80
2019-01-02T04:38:14.425Z,60.51
2019-01-02T04:41:18.219Z,60.44
2019-01-02T04:44:22.018Z,59.71
2019-01-02T04:47:25.894Z,59.21
2019-01-02T04:50:29.711Z,59.09
2019-01-02T04:53:33.667Z,58.41
2019-01-02T04:56:37.503Z,58.53
2019-01-02T04:59:41.373Z,57.97
2019-01-02T05:02:45.271Z,57.76
2019-01-02T05:05:49.112Z,57.37
2019-01-02T05:08:52.917Z,57.08
2019-01-02T05:11:56.711Z,57.04
2019-01-02T05:15:00.522Z,57.24
2019-01-02T05:18:04.523Z,57.01
2019-01-02T05:21:08.302Z,57.28
2019-01-02T05:24:12.104Z,57.43
2019-01-02T05:27:15.991Z,57.54
2019-01-02T05:30:20.238Z,57.40
2019-01-02T05:33:24.148Z,57.40
2019-01-02T05:36:27.967Z,57.73
2019-01-02T05:39:31.845Z,57.63
2019-01-02T05:42:35.658Z,58.18
2019-01-02T05:45:39.458Z,57.95
2019-01-02T05:48:43.251Z,58.55
2019-01-02T05:51:47.071Z,58.61
2019-01-02T05:54:50.859Z,58.65
2019-01-02T05:57:54.721Z,58.55
2019-01-02T06:00:58.597Z,58.72
2019-01-02T06:04:02.421Z,59.07
2019-01-02T06:07:06.296Z,58.71
2019-01-02T06:10:12.767Z,59.07
2019-01-02T06:13:16.564Z,59.28
2019-01-02T06:16:20.353Z,59.33
2019-01-02T06:19:24.254Z,59.46
2019-01-02T06:22:28.148Z,59.36
2019-01-02T06:25:31.943Z,58.77
2019-01-02T06:28:35.768Z,59.19
2019-01-02T06:31:39.561Z,59.48
2019-01-02T06:34:43.363Z,59.27
2019-01-02T06:37:47.164Z,59.44
2019-01-02T06:40:50.948Z,59.40
2019-01-02T06:43:54.741Z,59.60
2019-01-02T06:46:58.534Z,59.47
2019-01-02T06:50:02.415Z,60.10
2019-01-02T06:53:06.269Z,59.70
2019-01-02T06:56:10.105Z,59.99
2019-01-02T06:59:13.904Z,60.07
2019-01-02T07:02:17.725Z,60.11
2019-01-02T07:05:21.519Z,59.96
2019-01-02T07:08:25.343Z,59.70
2019-01-02T07:11:29.197Z,59.79
2019-01-02T07:14:32.999Z,59.91
2019-01-02T07:17:36.823Z,59.71
2019-01-02T07:20:40.622Z,60.01
2019-01-02T07:23:44.419Z,60.01
2019-01-02T07:26:48.373Z,60.20
2019-01-02T07:29:52.184Z,59.92
2019-01-02T07:32:55.981Z,59.36
2019-01-02T07:36:42.703Z,59.87
2019-01-02T07:40:34.244Z,59.75
2019-01-02T07:44:25.043Z,59.26
2019-01-02T07:48:05.255Z,59.31
2019-01-02T07:51:49.976Z,59.16
2019-01-02T07:55:20.074Z,59.31
2019-01-02T07:58:56.064Z,59.29
2019-01-02T08:02:54.019Z,59.29
2019-01-02T08:06:45.569Z,59.46
2019-01-02T08:10:37.867Z,59.26
2019-01-02T08:14:16.075Z,59.10
2019-01-02T08:17:39.305Z,59.24
2019-01-02T08:21:58.070Z,59.23
2019-01-02T08:25:50.785Z,58.98
2019-01-02T08:29:48.001Z,59.24
2019-01-02T08:33:37.559Z,59.13
2019-01-02T08:37:16.656Z,59.11
2019-01-02T08:40:50.748Z,58.95
2019-01-02T08:44:20.305Z,58.77
2019-01-02T08:47:47.596Z,58.20
2019-01-02T08:51:21.028Z,57.99
2019-01-02T08:55:01.840Z,57.98
2019-01-02T08:58:37.217Z,58.11
2019-01-02T09:02:24.794Z,58.10
2019-01-02T09:05:47.566Z,58.03
2019-01-02T09:09:38.849Z,57.51
2019-01-02T09:13:42.288Z,57.40
2019-01-02T09:17:25.062Z,57.71
2019-01-02T09:20:51.655Z,57.60
2019-01-02T09:24:38.596Z,57.25
2019-01-02T09:28:11.508Z,57.05
2019-01-02T09:31:48.544Z,55.97
2019-01-02T09:35:36.733Z,56.48
2019-01-02T09:39:20.907Z,56.17
2019-01-02T09:42:56.952Z,55.95
2019-01-02T09:46:54.282Z,54.09
2019-01-02T09:50:23.516Z,52.34
2019-01-02T09:53:55.965Z,51.39
2019-01-02T09:57:35.970Z,50.49
2019-01-02T10:01:11.584Z,51.11
2019-01-02T10:04:59.704Z,52.30
2019-01-02T10:08:29.646Z,52.44
2019-01-02T10:12:14.843Z,52.92
2019-01-02T10:16:05.463Z,51.90
2019-01-02T10:19:44.354Z,52.59
2019-01-02T10:23:21.249Z,52.51
2019-01-02T10:27:01.287Z,52.24
2019-01-02T10:30:38.050Z,52.27
2019-01-02T10:34:31.051Z,52.59
2019-01-02T10:38:11.416Z,52.16
2019-01-02T10:41:48.338Z,51.53
2019-01-02T10:45:39.309Z,50.66
2019-01-02T10:49:26.232Z,51.27
2019-01-02T10:52:57.583Z,52.19
2019-01-02T10:56:30.820Z,51.92
2019-01-02T10:59:51.022Z,51.91
2019-01-02T11:03:30.817Z,51.65
2019-01-02T11:07:10.756Z,51.66
2019-01-02T11:10:44.873Z,52.84
2019-01-02T11:14:29.830Z,52.58
2019-01-02T11:18:05.520Z,52.58
2019-01-02T11:22:05.572Z,53.05
2019-01-02T11:25:39.606Z,53.05
2019-01-02T11:29:05.941Z,52.55
2019-01-02T11:32:36.717Z,51.88
2019-01-02T11:36:15.076Z,51.88
2019-01-02T11:40:06.837Z,52.44
2019-01-02T11:43:46.839Z,52.28
2019-01-02T11:46:50.649Z,52.44
2019-01-02T11:49:54.459Z,52.64
2019-01-02T11:52:58.298Z,51.80
2019-01-02T11:56:02.097Z,51.78
2019-01-02T11:59:05.933Z,52.44
2019-01-02T12:02:09.726Z,52.15
2019-01-02T12:05:13.802Z,52.23
2019-01-02T12:08:17.604Z,51.75
2019-01-02T12:11:21.505Z,52.15
2019-01-02T12:14:25.376Z,52.25
2019-01-02T12:17:29.188Z,51.91
2019-01-02T12:20:33.080Z,52.20
2019-01-02T12:23:36.943Z,52.13
2019-01-02T12:26:41.166Z,51.53
2019-01-02T12:29:45.140Z,51.18
2019-01-02T12:32:48.939Z,51.86
2019-01-02T12:35:52.780Z,52.22
2019-01-02T12:38:56.615Z,51.16
2019-01-02T12:42:00.442Z,51.96
2019-01-02T12:45:04.483Z,52.14
2019-01-02T12:48:08.330Z,50.75
2019-01-02T12:51:12.144Z,51.50
2019-01-02T12:54:15.982Z,51.68
2019-01-02T12:57:19.837Z,51.15
2019-01-02T13:00:23.734Z,51.36
2019-01-02T13:04:04.773Z,52.14
2019-01-02T13:07:44.671Z,51.77
2019-01-02T13:11:18.567Z,51.42
2019-01-02T13:14:50.633Z,50.78
2019-01-02T13:18:27.584Z,50.47
2019-01-02T13:22:23.759Z,50.55
2019-01-02T13:25:52.179Z,51.08
2019-01-02T13:29:07.207Z,50.23
2019-01-02T13:32:54.078Z,50.99
2019-01-02T13:36:32.467Z,50.64
2019-01-02T13:40:06.111Z,49.97
2019-01-02T13:43:47.160Z,50.00
2019-01-02T13:47:20.405Z,50.36
2019-01-02T13:51:06.864Z,49.94
2019-01-02T13:54:10.669Z,50.00
2019-01-02T13:57:14.494Z,50.13
2019-01-02T14:00:18.398Z,50.67
2019-01-02T14:03:22.203Z,49.85
2019-01-02T14:06:25.993Z,50.71
2019-01-02T14:09:29.826Z,50.57
2019-01-02T14:12:33.620Z,51.00
2019-01-02T14:15:37.426Z,50.73
2019-01-02T14:18:41.250Z,51.07
2019-01-02T14:21:45.072Z,50.33
2019-01-02T14:24:48.886Z,51.06
2019-01-02T14:27:52.687Z,51.48
2019-01-02T14:30:56.498Z,51.72
2019-01-02T14:34:00.292Z,51.71
2019-01-02T14:37:04.126Z,51.68
2019-01-02T14:40:08.099Z,52.02
2019-01-02T14:43:11.897Z,52.21
2019-01-02T14:46:15.792Z,51.73
2019-01-02T14:49:19.596Z,52.37
2019-01-02T14:52:23.403Z,52.42
2019-01-02T14:55:27.279Z,52.55
2019-01-02T14:58:31.087Z,52.34
2019-01-02T15:01:34.892Z,52.67
2019-01-02T15:04:38.711Z,52.85
2019-01-02T15:07:42.512Z,53.04
2019-01-02T15:10:46.342Z,53.08
2019-01-02T15:13:50.156Z,53.41
2019-01-02T15:16:53.972Z,53.34
2019-01-02T15:19:57.756Z,53.91
2019-01-02T15:23:01.563Z,54.12
2019-01-02T15:26:05.443Z,54.29
2019-01-02T15:29:09.271Z,54.25
2019-01-02T15:32:13.062Z,54.11
2019-01-02T15:35:16.892Z,55.01
2019-01-02T15:38:20.693Z,55.17
2019-01-02T15:41:24.517Z,54.54
2019-01-02T15:44:28.376Z,54.51
2019-01-02T15:47:32.190Z,54.50
2019-01-02T15:50:36.058Z,54.68
2019-01-02T15:53:39.853Z,54.55
2019-01-02T15:56:43.721Z,54.88
2019-01-02T15:59:48.351Z,55.17
2019-01-02T16:02:52.159Z,55.33
2019-01-02T16:05:55.960Z,55.13
2019-01-02T16:08:59.784Z,55.29
2019-01-02T16:12:03.711Z,55.70
2019-01-02T16:15:08.672Z,56.01
2019-01-02T16:18:12.464Z,55.75
2019-01-02T16:21:16.285Z,55.95
2019-01-02T16:24:20.094Z,55.92
2019-01-02T16:27:24.437Z,55.67
2019-01-02T16:30:28.242Z,55.64
2019-01-02T16:33:32.082Z,55.50
2019-01-02T16:36:35.853Z,55.56
2019-01-02T16:39:39.684Z,55.60
2019-01-02T16:42:43.748Z,55.88
2019-01-02T16:45:47.553Z,56.09
2019-01-02T16:48:51.401Z,56.23
2019-01-02T16:51:55.198Z,56.66
2019-01-02T16:54:58.999Z,57.01
2019-01-02T16:58:02.811Z,56.94
2019-01-02T17:01:06.626Z,56.91
2019-01-02T17:04:10.512Z,56.61
2019-01-02T17:07:14.320Z,56.83
2019-01-02T17:10:18.195Z,56.40
2019-01-02T17:13:22.053Z,56.69
2019-01-02T17:16:25.915Z,56.89
2019-01-02T17:19:29.740Z,56.95
2019-01-02T17:22:33.652Z,57.16
2019-01-02T17:25:37.460Z,57.06
2019-01-02T17:28:41.627Z,57.23
2019-01-02T17:31:45.429Z,57.28
2019-01-02T17:34:49.243Z,57.71
2019-01-02T17:37:53.056Z,57.74
2019-01-02T17:40:56.874Z,57.82
2019-01-02T17:44:00.680Z,57.96
2019-01-02T17:47:04.630Z,58.17
2019-01-02T17:50:10.068Z,58.60
2019-01-02T17:53:13.909Z,58.64
2019-01-02T17:56:17.700Z,58.48
2019-01-02T17:59:21.504Z,58.24
2019-01-02T18:02:25.387Z,58.33
2019-01-02T18:05:29.318Z,58.34
2019-01-02T18:08:33.161Z,58.79
2019-01-02T18:11:36.992Z,58.86
2019-01-02T18:14:40.811Z,59.32
2019-01-02T18:17:44.620Z,59.84
2019-01-02T18:20:48.447Z,59.96
2019-01-02T18:23:52.276Z,60.49
2019-01-02T18:26:56.055Z,60.84
2019-01-02T18:29:59.989Z,60.87
2019-01-02T18:33:03.791Z,60.79
2019-01-02T18:36:07.673Z,61.22
2019-01-02T18:39:11.507Z,61.49
2019-01-02T18:42:15.345Z,61.68
2019-01-02T18:45:19.159Z,61.96
2019-01-02T18:48:22.991Z,62.14
2019-01-02T18:51:26.814Z,62.36
2019-01-02T18:54:30.612Z,62.43
2019-01-02T18:57:34.417Z,62.47
2019-01-02T19:00:38.255Z,62.58
2019-01-02T19:03:42.047Z,62.56
2019-01-02T19:06:45.875Z,62.93
2019-01-02T19:09:49.679Z,63.71
2019-01-02T19:12:53.503Z,64.03
2019-01-02T19:15:57.302Z,64.25
2019-01-02T19:19:01.108Z,64.26
2019-01-02T19:22:04.948Z,64.51
2019-01-02T19:25:08.924Z,64.82
2019-01-02T19:28:12.710Z,65.06
2019-01-02T19:31:16.498Z,65.17
2019-01-02T19:34:20.328Z,65.46
2019-01-02T19:37:24.134Z,65.68
2019-01-02T19:40:28.020Z,65.81
2019-01-02T19:43:31.808Z,65.82
2019-01-02T19:46:35.625Z,65.90
2019-01-02T19:49:39.486Z,66.08
2019-01-02T19:52:43.280Z,66.37
2019-01-02T19:55:47.117Z,66.34
2019-01-02T19:58:50.916Z,66.30
2019-01-02T20:01:54.741Z,66.51
2019-01-02T20:04:58.546Z,66.53
2019-01-02T20:08:02.403Z,66.74
2019-01-02T20:11:06.283Z,67.04
2019-01-02T20:14:10.091Z,67.29
2019-01-02T20:17:13.893Z,67.37
2019-01-02T20:20:17.690Z,67.41
2019-01-02T20:23:21.492Z,67.82
2019-01-02T20:26:31.396Z,67.86
2019-01-02T20:29:30.904Z,67.80
2019-01-02T20:32:34.727Z,67.65
2019-01-02T20:35:38.567Z,67.64
2019-01-02T20:38:42.368Z,67.67
2019-01-02T20:41:46.205Z,67.28
2019-01-02T20:44:50.033Z,67.14
2019-01-02T20:47:53.837Z,67.15
2019-01-02T20:50:57.631Z,67.18
2019-01-02T20:54:01.468Z,67.34
2019-01-02T20:57:05.254Z,67.47
2019-01-02T21:00:11.534Z,67.58
2019-01-02T21:03:15.359Z,67.72
2019-01-02T21:06:19.170Z,67.72
2019-01-02T21:09:23.000Z,67.80
2019-01-02T21:12:26.808Z,68.01
2019-01-02T21:15:30.628Z,68.17
2019-01-02T21:18:34.421Z,68.07
2019-01-02T21:21:38.273Z,68.11
2019-01-02T21:24:42.081Z,68.25
2019-01-02T21:27:45.981Z,68.60
2019-01-02T21:30:49.775Z,68.77
2019-01-02T21:33:53.796Z,68.85
2019-01-02T21:36:57.654Z,69.15
2019-01-02T21:40:01.502Z,69.36
2019-01-02T21:43:05.304Z,69.52
2019-01-02T21:46:09.112Z,69.53
2019-01-02T21:49:12.912Z,69.60
2019-01-02T21:52:16.739Z,69.61
2019-01-02T21:55:20.534Z,69.78
2019-01-02T21:58:24.354Z,69.84
2019-01-02T22:01:28.148Z,69.98
2019-01-02T22:04:31.986Z,69.99
2019-01-02T22:07:35.795Z,70.05
2019-01-02T22:10:39.606Z,70.25
2019-01-02T22:13:43.417Z,70.32
2019-01-02T22:16:47.245Z,70.30
2019-01-02T22:19:51.075Z,70.52
2019-01-02T22:22:54.862Z,70.68
2019-01-02T22:25:58.690Z,70.68
2019-01-02T22:29:02.521Z,70.77
2019-01-02T22:32:06.385Z,70.82
2019-01-02T22:35:10.184Z,70.77
2019-01-02T22:38:14.052Z,70.73
2019-01-02T22:41:17.872Z,70.75
2019-01-02T22:44:21.756Z,70.84
2019-01-02T22:47:25.584Z,70.75
2019-01-02T22:50:29.408Z,70.63
2019-01-02T22:53:33.219Z,70.53
2019-01-02T22:56:37.035Z,70.59
2019-01-02T22:59:40.847Z,70.70
2019-01-02T23:03:04.627Z,70.78
2019-01-02T23:06:33.625Z,70.99
2019-01-02T23:09:50.952Z,71.18
2019-01-02T23:13:12.756Z,71.15
2019-01-02T23:16:35.312Z,71.45
2019-01-02T23:20:07.601Z,71.86
2019-01-02T23:23:29.081Z,72.05
2019-01-02T23:26:54.707Z,71.91
2019-01-02T23:30:14.008Z,71.50
2019-01-02T23:33:44.636Z,71.40
2019-01-02T23:37:06.425Z,71.81
2019-01-02T23:40:32.557Z,71.96
2019-01-02T23:43:58.466Z,72.06
2019-01-02T23:47:30.359Z,72.08
2019-01-02T23:51:08.564Z,72.09
2019-01-02T23:54:30.374Z,72.21
2019-01-02T23:57:51.797Z,72.37
